Time;durP1;ratioP1;P1;durP2;ratioP2;P2;SDS_P1;SDS_P2;PMS_P1;PMS_P2;Temp;Humidity;BMP_temperature;BMP_pressure;BME280_temperature;BME280_humidity;BME280_pressure;Samples;Min_cycle;Max_cycle;Signal;HPM_P1;HPM_P2
2023/09/22 00:03:51;;;;;;;13.00;5.60;;;;;;;20.15;76.95;99053.98;213801;1288;140343;-88
2023/09/22 00:08:52;;;;;;;11.70;4.90;;;;;;;20.10;77.12;99048.80;214490;1288;97952;-88
2023/09/22 00:13:53;;;;;;;12.90;5.60;;;;;;;20.06;77.52;99052.04;213605;1290;141346;-88
2023/09/22 00:18:53;;;;;;;14.10;5.60;;;;;;;20.00;77.87;99046.62;214357;1290;139220;-86
2023/09/22 00:23:54;;;;;;;11.40;5.80;;;;;;;19.95;78.08;99049.23;213901;1290;140322;-86
2023/09/22 00:28:56;;;;;;;14.50;5.70;;;;;;;19.89;78.42;99048.60;214357;1287;138820;-87
2023/09/22 00:33:57;;;;;;;14.50;6.10;;;;;;;19.83;78.90;99044.50;213873;1290;142090;-86
2023/09/22 00:38:57;;;;;;;12.60;6.00;;;;;;;19.78;79.02;99052.09;214316;1290;107118;-88
2023/09/22 00:43:58;;;;;;;13.80;5.40;;;;;;;19.73;79.26;99058.17;213679;1288;140773;-87
2023/09/22 00:48:59;;;;;;;10.40;5.00;;;;;;;19.66;79.70;99054.80;214801;1287;138653;-89
2023/09/22 00:54:00;;;;;;;14.40;5.70;;;;;;;19.60;80.12;99053.37;214396;1286;141000;-87
2023/09/22 00:59:00;;;;;;;15.20;5.70;;;;;;;19.54;80.64;99045.11;214934;1290;139410;-88
2023/09/22 01:04:01;;;;;;;15.70;6.00;;;;;;;19.48;81.17;99043.45;214123;1288;140715;-87
2023/09/22 01:09:05;;;;;;;13.00;5.40;;;;;;;19.43;81.64;99035.03;215047;1288;99089;-87
2023/09/22 01:14:06;;;;;;;14.00;5.80;;;;;;;19.38;81.98;99026.40;214458;1286;141277;-88
2023/09/22 01:19:16;;;;;;;15.20;6.40;;;;;;;19.34;82.23;99026.36;214878;1286;138720;-87
2023/09/22 01:24:17;;;;;;;14.30;6.20;;;;;;;19.29;83.12;99025.42;214146;1291;139106;-86
2023/09/22 01:29:19;;;;;;;14.70;5.70;;;;;;;19.25;83.39;99027.89;213839;1289;141701;-88
2023/09/22 01:34:20;;;;;;;13.70;5.90;;;;;;;19.21;83.53;99027.03;214162;1286;138708;-88
2023/09/22 01:39:22;;;;;;;15.50;7.00;;;;;;;19.17;84.28;99022.44;213401;1285;141760;-87
2023/09/22 01:44:22;;;;;;;13.90;6.70;;;;;;;19.13;84.67;99025.08;214327;1290;107985;-90
2023/09/22 01:49:23;;;;;;;17.50;6.40;;;;;;;19.10;84.96;99030.08;213570;1289;141367;-88
2023/09/22 01:54:23;;;;;;;12.30;6.10;;;;;;;19.08;85.28;99028.04;214191;1291;140371;-86
2023/09/22 01:59:23;;;;;;;12.90;6.30;;;;;;;19.06;85.72;99017.61;213811;1288;141920;-87
2023/09/22 02:04:24;;;;;;;15.20;6.70;;;;;;;19.03;85.82;99014.50;214173;1292;139046;-87
2023/09/22 02:09:24;;;;;;;14.30;6.80;;;;;;;19.02;86.35;99014.98;213813;1291;140769;-86
2023/09/22 02:14:25;;;;;;;15.00;6.00;;;;;;;19.00;86.47;99025.61;214420;1286;98403;-87
2023/09/22 02:19:25;;;;;;;12.80;6.10;;;;;;;18.98;86.72;99017.58;213716;1290;140094;-87
2023/09/22 02:24:26;;;;;;;14.60;5.70;;;;;;;18.96;87.20;99015.70;214212;1292;138860;-89
2023/09/22 02:29:26;;;;;;;14.80;7.10;;;;;;;18.93;87.47;99017.14;213782;1291;140763;-88
2023/09/22 02:34:27;;;;;;;15.90;7.50;;;;;;;18.90;87.86;99019.14;214117;1286;138731;-87
2023/09/22 02:39:27;;;;;;;13.40;6.80;;;;;;;18.86;87.92;99007.67;213486;1291;140692;-88
2023/09/22 02:44:29;;;;;;;14.60;7.20;;;;;;;18.83;88.30;99004.74;214224;1289;98047;-87
2023/09/22 02:49:30;;;;;;;15.10;7.00;;;;;;;18.79;88.85;99004.20;213789;1286;140950;-87
2023/09/22 02:54:31;;;;;;;14.50;7.00;;;;;;;18.76;89.10;99008.71;214044;1288;139441;-87
2023/09/22 02:59:31;;;;;;;13.00;7.00;;;;;;;18.72;89.35;99017.81;213770;1290;142156;-88
2023/09/22 03:04:34;;;;;;;13.20;6.30;;;;;;;18.68;89.53;99025.28;214380;1287;139395;-87
2023/09/22 03:09:35;;;;;;;18.20;7.60;;;;;;;18.65;89.92;99028.79;213861;1292;142296;-87
2023/09/22 03:14:35;;;;;;;17.20;7.60;;;;;;;18.62;90.40;99028.29;214324;1286;98003;-87
2023/09/22 03:19:36;;;;;;;16.70;7.80;;;;;;;18.58;90.41;99022.09;213974;1287;140910;-87
2023/09/22 03:24:36;;;;;;;15.70;7.20;;;;;;;18.52;91.02;99022.70;214286;1286;138795;-87
2023/09/22 03:29:36;;;;;;;15.00;8.00;;;;;;;18.49;91.40;99022.09;213760;1288;141726;-87
2023/09/22 03:34:37;;;;;;;17.30;7.70;;;;;;;18.45;91.72;99018.34;214379;1286;138969;-87
2023/09/22 03:39:37;;;;;;;18.30;8.00;;;;;;;18.41;91.66;99017.50;213730;1288;141053;-88
2023/09/22 03:44:37;;;;;;;16.90;8.50;;;;;;;18.36;92.18;99010.54;214402;1288;98016;-87
2023/09/22 03:49:38;;;;;;;15.40;7.60;;;;;;;18.33;92.39;99012.35;213651;1286;142777;-88
2023/09/22 03:54:38;;;;;;;17.30;7.60;;;;;;;18.29;92.72;99011.84;214216;1285;139274;-87
2023/09/22 03:59:39;;;;;;;14.40;7.60;;;;;;;18.26;92.89;99021.20;213695;1286;141325;-88
2023/09/22 04:04:39;;;;;;;16.10;8.30;;;;;;;18.24;93.09;99029.09;214338;1287;138717;-87
2023/09/22 04:09:40;;;;;;;13.70;7.80;;;;;;;18.23;93.27;99040.04;214001;1288;141506;-87
2023/09/22 04:14:41;;;;;;;17.60;8.00;;;;;;;18.21;93.23;99047.34;214386;1286;97963;-86
2023/09/22 04:19:41;;;;;;;19.60;8.70;;;;;;;18.20;93.76;99051.70;213753;1287;139701;-89
2023/09/22 04:24:47;;;;;;;14.60;8.10;;;;;;;18.18;94.45;99034.42;214084;1286;139237;-87
2023/09/22 04:29:48;;;;;;;17.50;9.30;;;;;;;18.16;94.91;99042.71;213757;1287;141253;-87
2023/09/22 04:34:49;;;;;;;17.60;8.90;;;;;;;18.14;95.14;99045.84;214398;1291;139186;-87
2023/09/22 04:39:49;;;;;;;18.40;8.70;;;;;;;18.12;94.92;99051.87;213727;1286;141711;-88
2023/09/22 04:44:50;;;;;;;20.50;8.90;;;;;;;18.12;95.09;99058.86;214456;1287;98167;-87
2023/09/22 04:49:51;;;;;;;16.80;7.70;;;;;;;18.11;95.16;99062.73;214568;1289;142501;-88
2023/09/22 04:54:52;;;;;;;16.80;9.20;;;;;;;18.11;95.44;99063.72;214979;1286;139656;-87
2023/09/22 04:59:54;;;;;;;22.90;8.80;;;;;;;18.10;95.62;99075.52;214188;1287;140834;-87
2023/09/22 05:04:54;;;;;;;19.40;9.30;;;;;;;18.09;96.03;99079.52;214941;1287;138855;-88
2023/09/22 05:09:55;;;;;;;19.40;8.90;;;;;;;18.09;95.89;99090.71;214428;1286;142078;-88
2023/09/22 05:14:55;;;;;;;18.10;8.50;;;;;;;18.10;96.42;99088.64;215086;1290;97877;-86
2023/09/22 05:19:56;;;;;;;15.20;8.10;;;;;;;18.11;96.58;99086.20;213811;1288;141502;-88
2023/09/22 05:24:57;;;;;;;16.40;7.90;;;;;;;18.13;96.87;99092.23;214271;1288;138691;-87
2023/09/22 05:29:57;;;;;;;25.40;9.70;;;;;;;18.17;97.13;99093.84;213864;1287;140815;-87
2023/09/22 05:34:59;;;;;;;21.50;8.60;;;;;;;18.21;97.00;99093.81;214428;1287;139136;-88
2023/09/22 05:40:00;;;;;;;19.70;8.60;;;;;;;18.27;96.84;99104.14;213790;1288;143628;-89
2023/09/22 05:45:01;;;;;;;13.80;8.80;;;;;;;18.35;96.97;99105.92;214560;1287;99276;-88
2023/09/22 05:50:02;;;;;;;22.40;9.20;;;;;;;18.45;97.17;99104.34;213779;1288;142413;-87
2023/09/22 05:55:03;;;;;;;19.10;8.80;;;;;;;18.54;96.58;99106.80;214457;1286;138591;-86
2023/09/22 06:00:10;;;;;;;15.50;8.10;;;;;;;18.65;96.59;99110.55;214077;1288;141020;-87
2023/09/22 06:05:10;;;;;;;17.60;7.70;;;;;;;18.76;96.63;99119.91;214418;1290;139387;-88
2023/09/22 06:10:11;;;;;;;19.80;8.30;;;;;;;18.88;96.50;99126.98;214213;1287;142298;-90
2023/09/22 06:15:15;;;;;;;17.70;9.70;;;;;;;18.99;96.48;99134.56;215091;1285;98513;-91
2023/09/22 06:20:16;;;;;;;14.30;8.20;;;;;;;19.09;95.94;99138.25;214544;1285;141463;-90
2023/09/22 06:25:17;;;;;;;16.50;9.00;;;;;;;19.21;95.93;99143.73;214455;1288;138852;-89
2023/09/22 06:30:17;;;;;;;20.80;8.60;;;;;;;19.33;95.59;99146.39;214461;1290;142265;-88
2023/09/22 06:35:18;;;;;;;16.10;8.00;;;;;;;19.45;95.23;99154.83;214579;1289;139374;-87
2023/09/22 06:40:18;;;;;;;16.20;7.80;;;;;;;19.58;94.79;99157.04;213765;1286;140715;-89
2023/09/22 06:45:22;;;;;;;18.30;8.00;;;;;;;19.71;94.57;99178.92;214589;1288;138721;-86
2023/09/22 06:50:24;;;;;;;16.80;7.30;;;;;;;19.77;94.21;99186.28;213995;1287;141325;-91
2023/09/22 06:55:24;;;;;;;13.60;7.10;;;;;;;19.88;94.04;99189.80;214637;1288;139312;-89
2023/09/22 07:00:28;;;;;;;17.10;7.60;;;;;;;19.94;93.65;99178.24;214089;1286;139716;-89
2023/09/22 07:05:29;;;;;;;15.60;7.90;;;;;;;20.03;93.54;99172.98;214695;1287;138719;-87
2023/09/22 07:10:30;;;;;;;21.30;7.80;;;;;;;20.12;93.25;99161.45;214924;1286;140316;-86
2023/09/22 07:15:31;;;;;;;19.40;7.70;;;;;;;20.21;93.09;99166.79;214809;1287;139380;-87
2023/09/22 07:20:32;;;;;;;20.30;7.80;;;;;;;20.27;92.88;99184.77;214090;1287;140037;-87
2023/09/22 07:25:32;;;;;;;18.10;7.50;;;;;;;20.34;93.25;99192.16;214522;1290;142777;-87
2023/09/22 07:30:34;;;;;;;18.20;7.40;;;;;;;20.41;92.89;99196.44;213888;1288;140280;-85
2023/09/22 07:35:35;;;;;;;18.10;8.40;;;;;;;20.47;92.59;99204.39;214527;1287;138916;-85
2023/09/22 07:40:35;;;;;;;19.10;7.90;;;;;;;20.52;92.65;99201.11;213950;1287;142342;-87
2023/09/22 07:45:35;;;;;;;15.00;7.60;;;;;;;20.58;92.33;99203.04;214640;1286;139008;-86
2023/09/22 07:50:38;;;;;;;18.30;7.60;;;;;;;20.66;92.08;99211.29;215288;1286;141722;-85
2023/09/22 07:55:41;;;;;;;16.00;8.10;;;;;;;20.74;92.02;99210.17;215535;1286;140442;-85
2023/09/22 08:00:46;;;;;;;15.20;6.60;;;;;;;20.84;91.59;99211.02;215222;1288;141825;-87
2023/09/22 08:05:50;;;;;;;15.00;7.00;;;;;;;20.96;91.33;99213.93;215461;1287;138762;-87
2023/09/22 08:10:51;;;;;;;16.00;7.30;;;;;;;21.09;91.09;99216.16;214620;1286;141026;-87
2023/09/22 08:15:52;;;;;;;16.50;7.00;;;;;;;21.24;90.99;99220.02;215179;1288;138931;-86
2023/09/22 08:20:54;;;;;;;13.20;6.50;;;;;;;21.45;90.47;99221.31;214280;1286;141661;-85
2023/09/22 08:25:56;;;;;;;14.40;7.20;;;;;;;21.64;89.82;99229.75;214435;1286;139240;-86
2023/09/22 08:30:56;;;;;;;11.60;5.80;;;;;;;21.84;89.12;99220.81;214029;1287;140522;-85
2023/09/22 08:35:57;;;;;;;15.60;7.30;;;;;;;22.11;88.32;99221.96;214426;1287;137743;-85
2023/09/22 08:40:59;;;;;;;20.70;6.80;;;;;;;22.40;87.68;99221.59;214012;1286;142804;-86
2023/09/22 08:46:01;;;;;;;16.80;7.60;;;;;;;22.65;87.13;99224.34;214593;1286;138656;-86
2023/09/22 08:51:03;;;;;;;14.80;6.80;;;;;;;22.96;86.60;99221.91;214001;1290;141362;-86
2023/09/22 08:56:06;;;;;;;17.20;6.70;;;;;;;23.36;86.04;99230.77;214288;1288;138996;-86
2023/09/22 09:01:07;;;;;;;15.90;6.90;;;;;;;23.85;84.68;99230.45;213949;1287;140900;-86
2023/09/22 09:06:09;;;;;;;14.60;6.40;;;;;;;24.20;82.59;99225.71;214342;1287;139528;-87
2023/09/22 09:11:10;;;;;;;14.90;6.70;;;;;;;24.56;82.26;99220.23;214037;1286;139859;-85
2023/09/22 09:16:28;;;;;;;20.40;5.70;;;;;;;24.89;79.38;99228.96;214541;1287;139494;-86
2023/09/22 09:21:29;;;;;;;17.60;5.80;;;;;;;25.14;78.43;99225.36;213986;1288;140572;-87
2023/09/22 09:26:31;;;;;;;8.40;4.50;;;;;;;25.43;78.21;99225.98;214643;1287;98076;-86
2023/09/22 09:31:47;;;;;;;12.40;4.20;;;;;;;25.66;76.41;99234.45;214027;1287;141119;-86
2023/09/22 09:37:08;;;;;;;20.20;5.10;;;;;;;25.83;75.58;99244.41;214760;1285;139277;-86
2023/09/22 09:42:09;;;;;;;12.70;4.90;;;;;;;25.99;73.66;99252.26;214162;1287;140751;-85
2023/09/22 09:47:12;;;;;;;11.10;4.70;;;;;;;25.92;72.91;99257.77;214213;1286;138417;-86
2023/09/22 09:52:15;;;;;;;10.50;4.40;;;;;;;25.86;73.06;99265.83;213628;1286;140130;-86
2023/09/22 09:57:20;;;;;;;12.70;4.50;;;;;;;25.86;72.17;99267.16;214473;1287;106047;-86
2023/09/22 10:02:21;;;;;;;11.00;4.10;;;;;;;25.76;72.39;99270.67;214324;1286;139623;-87
2023/09/22 10:07:22;;;;;;;9.60;4.20;;;;;;;25.84;72.32;99271.45;214655;1287;138087;-86
2023/09/22 10:12:23;;;;;;;9.70;4.70;;;;;;;25.90;72.15;99273.42;213842;1287;140490;-86
2023/09/22 10:17:24;;;;;;;8.40;4.10;;;;;;;25.87;70.68;99268.29;214576;1288;139064;-84
2023/09/22 10:22:30;;;;;;;10.20;3.40;;;;;;;25.88;70.21;99275.63;214011;1287;139516;-84
2023/09/22 10:27:58;;;;;;;7.80;3.70;;;;;;;25.87;69.74;99277.31;214489;1290;138523;-85
2023/09/22 10:33:21;;;;;;;7.10;3.00;;;;;;;25.94;69.80;99268.80;214172;1286;138751;-87
2023/09/22 10:38:22;;;;;;;7.80;3.30;;;;;;;25.96;69.34;99276.91;214498;1287;112202;-87
2023/09/22 10:43:22;;;;;;;9.90;3.20;;;;;;;25.92;68.93;99287.86;214076;1290;139140;-87
2023/09/22 10:48:23;;;;;;;9.70;3.60;;;;;;;25.96;68.87;99299.82;214409;1288;137998;-87
2023/09/22 10:53:23;;;;;;;10.00;3.70;;;;;;;26.00;69.08;99294.14;214084;1287;139499;-86
2023/09/22 10:58:26;;;;;;;10.00;3.70;;;;;;;25.96;68.30;99288.29;214673;1287;138506;-86
2023/09/22 11:03:27;;;;;;;8.40;4.00;;;;;;;25.95;67.98;99285.42;214271;1288;284280;-85
2023/09/22 11:08:28;;;;;;;10.50;3.40;;;;;;;25.94;67.32;99298.69;214628;1290;110325;-86
2023/09/22 11:13:29;;;;;;;9.20;3.30;;;;;;;25.95;68.04;99287.46;213905;1288;139878;-85
2023/09/22 11:18:32;;;;;;;9.50;2.90;;;;;;;25.92;67.14;99294.47;214670;1288;137946;-87
2023/09/22 11:23:35;;;;;;;10.50;3.50;;;;;;;25.85;67.33;99295.49;214470;1286;140544;-85
2023/09/22 11:28:45;;;;;;;7.50;3.10;;;;;;;25.93;67.09;99302.83;214583;1287;138457;-87
2023/09/22 11:33:59;;;;;;;9.00;3.10;;;;;;;25.96;67.42;99302.55;213921;1287;139452;-86
2023/09/22 11:39:03;;;;;;;5.80;2.50;;;;;;;25.89;66.29;99311.63;214621;1290;97900;-85
2023/09/22 11:44:13;;;;;;;9.00;3.30;;;;;;;25.74;67.33;99321.70;214057;1287;139011;-87
2023/09/22 11:49:13;;;;;;;9.30;3.00;;;;;;;25.87;68.31;99328.57;214006;1288;140396;-87
2023/09/22 11:54:21;;;;;;;18.90;3.50;;;;;;;25.97;68.54;99328.16;214627;1286;137910;-87
2023/09/22 11:59:48;;;;;;;6.40;3.10;;;;;;;26.13;67.83;99333.81;213865;1288;142606;-87
2023/09/22 12:04:45;;;;;;;7.20;3.00;;;;;;;26.18;68.32;99330.64;214343;1287;137922;-86
2023/09/22 12:09:46;;;;;;;10.00;2.90;;;;;;;26.30;67.63;99340.21;213974;1286;138976;-85
2023/09/22 12:14:46;;;;;;;5.90;2.40;;;;;;;26.25;66.27;99349.54;214965;1286;98393;-85
2023/09/22 12:19:47;;;;;;;5.20;2.70;;;;;;;26.27;66.58;99360.73;215081;1287;139718;-87
2023/09/22 12:24:47;;;;;;;6.40;3.10;;;;;;;26.29;66.81;99367.29;214909;1287;138485;-87
2023/09/22 12:29:48;;;;;;;4.60;2.50;;;;;;;26.20;65.74;99380.60;214671;1288;138738;-86
2023/09/22 12:34:50;;;;;;;8.70;2.60;;;;;;;26.05;65.37;99378.95;215079;1288;139348;-85
2023/09/22 12:39:50;;;;;;;13.30;3.00;;;;;;;25.83;65.54;99372.17;214524;1288;139537;-87
2023/09/22 12:44:51;;;;;;;3.90;1.90;;;;;;;25.80;66.39;99377.02;215234;1286;98017;-86
2023/09/22 12:49:52;;;;;;;9.20;2.30;;;;;;;25.70;65.53;99382.52;214048;1285;140570;-85
2023/09/22 12:54:52;;;;;;;5.20;2.40;;;;;;;25.57;65.63;99375.27;214640;1287;137694;-87
2023/09/22 12:59:53;;;;;;;6.40;2.70;;;;;;;25.53;65.92;99374.48;213984;1286;140271;-88
2023/09/22 13:04:55;;;;;;;7.00;3.00;;;;;;;25.54;66.86;99379.25;214705;1287;138543;-85
2023/09/22 13:09:57;;;;;;;8.50;2.90;;;;;;;25.41;67.04;99382.70;213613;1286;143619;-89
2023/09/22 13:14:58;;;;;;;9.30;3.00;;;;;;;25.36;67.67;99387.32;214770;1290;98014;-86
2023/09/22 13:19:58;;;;;;;9.30;3.40;;;;;;;25.25;67.92;99393.85;213992;1286;139557;-86
2023/09/22 13:24:58;;;;;;;5.80;2.90;;;;;;;25.18;68.28;99399.73;214630;1286;137694;-86
2023/09/22 13:29:59;;;;;;;5.20;2.60;;;;;;;25.02;68.29;99396.11;214203;1288;139379;-88
2023/09/22 13:34:59;;;;;;;5.50;2.70;;;;;;;24.84;68.67;99405.38;215634;1288;138480;-88
2023/09/22 13:40:00;;;;;;;5.80;2.40;;;;;;;24.67;69.08;99402.45;214052;1287;141447;-87
2023/09/22 13:45:00;;;;;;;8.20;2.20;;;;;;;24.56;69.39;99411.98;214673;1290;99841;-88
2023/09/22 13:50:01;;;;;;;9.60;2.50;;;;;;;24.41;69.78;99417.17;213927;1287;140059;-86
2023/09/22 13:55:04;;;;;;;7.80;2.40;;;;;;;24.25;69.91;99422.27;214751;1287;139411;-88
2023/09/22 14:00:11;;;;;;;6.50;2.50;;;;;;;24.13;70.54;99427.23;218139;1286;139859;-88
2023/09/22 14:05:11;;;;;;;4.10;2.20;;;;;;;23.99;70.68;99428.65;218603;1287;138386;-87
2023/09/22 14:10:14;;;;;;;4.90;2.00;;;;;;;23.89;70.92;99428.91;218054;1287;140933;-88
2023/09/22 14:15:14;;;;;;;4.70;2.60;;;;;;;23.79;71.50;99426.56;215973;1287;98207;-88
2023/09/22 14:20:15;;;;;;;3.30;1.80;;;;;;;23.69;71.66;99428.05;214638;1290;139448;-87
2023/09/22 14:25:16;;;;;;;4.90;1.90;;;;;;;23.61;71.88;99424.98;214654;1288;137607;-87
2023/09/22 14:30:17;;;;;;;8.80;2.70;;;;;;;23.54;72.54;99431.88;214848;1290;139624;-88
2023/09/22 14:35:17;;;;;;;5.20;2.00;;;;;;;23.41;72.58;99438.77;214847;1287;139042;-87
2023/09/22 14:40:18;;;;;;;4.10;2.20;;;;;;;23.29;73.03;99438.48;214139;1287;141107;-87
2023/09/22 14:45:19;;;;;;;30.20;3.30;;;;;;;23.22;73.41;99445.15;214898;1287;98005;-87
2023/09/22 14:50:21;;;;;;;6.90;2.20;;;;;;;23.02;73.57;99444.45;213918;1287;139913;-88
2023/09/22 14:55:21;;;;;;;5.30;2.80;;;;;;;22.76;74.14;99451.67;215208;1287;137856;-88
2023/09/22 15:00:22;;;;;;;6.30;1.80;;;;;;;22.47;74.82;99464.09;214176;1288;140623;-87
2023/09/22 15:05:22;;;;;;;6.90;2.90;;;;;;;22.26;75.79;99480.13;217249;1286;138215;-87
2023/09/22 15:10:23;;;;;;;4.90;2.30;;;;;;;22.08;76.57;99491.77;214044;1287;140975;-87
2023/09/22 15:15:24;;;;;;;6.50;2.10;;;;;;;21.85;77.81;99502.59;214776;1290;138525;-84
2023/09/22 15:20:24;;;;;;;5.10;1.90;;;;;;;21.53;79.38;99495.25;214594;1287;140882;-87
2023/09/22 15:25:25;;;;;;;6.50;2.20;;;;;;;21.37;80.40;99500.05;214756;1290;138881;-89
2023/09/22 15:30:25;;;;;;;4.00;1.90;;;;;;;21.22;81.03;99512.36;214201;1288;141998;-89
2023/09/22 15:35:26;;;;;;;6.40;1.90;;;;;;;21.12;82.03;99520.89;214882;1287;138767;-87
2023/09/22 15:40:27;;;;;;;4.50;2.10;;;;;;;21.02;82.82;99526.52;214447;1287;140472;-88
2023/09/22 15:45:28;;;;;;;4.00;1.80;;;;;;;20.85;83.69;99518.11;214696;1287;138542;-89
2023/09/22 15:50:32;;;;;;;5.60;1.60;;;;;;;20.71;84.04;99535.05;213995;1288;140444;-87
2023/09/22 15:55:32;;;;;;;3.60;1.50;;;;;;;20.52;83.96;99548.28;214662;1287;139002;-89
2023/09/22 16:00:44;;;;;;;4.30;1.70;;;;;;;20.32;84.31;99555.11;214342;1288;140702;-88
2023/09/22 16:05:44;;;;;;;2.50;1.40;;;;;;;20.15;84.82;99561.11;214474;1287;139045;-87
2023/09/22 16:10:45;;;;;;;6.00;2.10;;;;;;;20.02;84.86;99558.85;214967;1290;140385;-88
2023/09/22 16:15:47;;;;;;;5.50;1.50;;;;;;;19.91;85.46;99556.48;214581;1288;138948;-88
2023/09/22 16:20:47;;;;;;;5.70;2.20;;;;;;;19.80;85.72;99569.14;213860;1288;141247;-84
2023/09/22 16:25:48;;;;;;;5.30;2.40;;;;;;;19.62;85.93;99578.83;214402;1287;138401;-88
2023/09/22 16:30:51;;;;;;;6.30;2.40;;;;;;;19.44;85.68;99587.27;213922;1290;140247;-88
2023/09/22 16:35:52;;;;;;;5.10;2.10;;;;;;;19.30;85.91;99589.46;214627;1287;138615;-86
2023/09/22 16:40:52;;;;;;;6.10;2.10;;;;;;;19.18;85.73;99589.19;213949;1290;140233;-87
2023/09/22 16:45:53;;;;;;;6.60;2.10;;;;;;;19.05;85.64;99605.11;214386;1287;139085;-87
2023/09/22 16:50:54;;;;;;;5.30;2.40;;;;;;;18.89;85.92;99616.29;214113;1288;141087;-87
2023/09/22 16:55:55;;;;;;;7.00;3.10;;;;;;;18.74;86.05;99618.41;214695;1288;139288;-88
2023/09/22 17:00:58;;;;;;;7.20;2.00;;;;;;;18.62;86.51;99615.31;213975;1288;142205;-88
2023/09/22 17:05:59;;;;;;;8.10;2.30;;;;;;;18.54;87.62;99620.86;214098;1289;139878;-87
2023/09/22 17:10:59;;;;;;;5.30;2.00;;;;;;;18.46;88.60;99622.23;213878;1287;140235;-87
2023/09/22 17:16:04;;;;;;;4.30;2.00;;;;;;;18.38;89.13;99622.92;214476;1288;139174;-89
2023/09/22 17:21:06;;;;;;;6.00;2.20;;;;;;;18.32;90.13;99616.75;213839;1290;143001;-85
2023/09/22 17:26:06;;;;;;;5.00;2.00;;;;;;;18.24;90.41;99618.74;214678;1290;138374;-85
2023/09/22 17:31:07;;;;;;;5.40;2.00;;;;;;;18.13;91.15;99627.27;213925;1290;140936;-85
2023/09/22 17:36:10;;;;;;;4.80;2.10;;;;;;;18.02;91.93;99639.42;214523;1290;139540;-84
2023/09/22 17:41:13;;;;;;;3.90;1.80;;;;;;;17.88;92.82;99644.24;213771;1290;140491;-85
2023/09/22 17:46:13;;;;;;;4.50;1.90;;;;;;;17.76;93.77;99651.23;214303;1286;138657;-84
2023/09/22 17:51:14;;;;;;;6.20;2.50;;;;;;;17.69;94.48;99653.18;213897;1288;141962;-84
2023/09/22 17:56:14;;;;;;;4.90;2.60;;;;;;;17.58;95.52;99661.62;214463;1286;139060;-84
2023/09/22 18:01:16;;;;;;;5.10;2.40;;;;;;;17.46;96.53;99663.95;213938;1286;140578;-84
2023/09/22 18:06:17;;;;;;;4.90;2.30;;;;;;;17.39;97.27;99668.77;214649;1290;138663;-83
2023/09/22 18:11:17;;;;;;;6.10;2.60;;;;;;;17.34;97.34;99666.25;214111;1290;140553;-82
2023/09/22 18:16:18;;;;;;;5.30;2.50;;;;;;;17.27;98.95;99677.41;214358;1288;138594;-83
2023/09/22 18:21:18;;;;;;;7.50;2.20;;;;;;;17.20;99.12;99684.23;213896;1290;141860;-83
2023/09/22 18:26:19;;;;;;;7.10;3.60;;;;;;;17.20;99.43;99675.17;214535;1290;138954;-84
2023/09/22 18:31:25;;;;;;;11.60;6.20;;;;;;;17.16;99.59;99686.54;213901;1290;141573;-83
2023/09/22 18:36:26;;;;;;;7.60;3.30;;;;;;;17.11;99.75;99688.77;214355;1290;139346;-84
2023/09/22 18:41:26;;;;;;;5.40;2.90;;;;;;;17.06;99.88;99689.54;214479;1290;140973;-82
2023/09/22 18:46:27;;;;;;;5.90;2.80;;;;;;;16.96;100.00;99682.98;214500;1290;141853;-82
2023/09/22 18:51:27;;;;;;;5.40;2.70;;;;;;;16.90;100.00;99682.10;213849;1289;139914;-82
2023/09/22 18:56:29;;;;;;;4.10;2.20;;;;;;;16.83;100.00;99679.02;214647;1286;97918;-83
2023/09/22 19:01:30;;;;;;;5.20;2.30;;;;;;;16.81;100.00;99682.41;213867;1289;140075;-83
2023/09/22 19:06:32;;;;;;;4.90;2.40;;;;;;;16.79;100.00;99686.05;214435;1288;138648;-83
2023/09/22 19:11:32;;;;;;;3.70;2.30;;;;;;;16.75;100.00;99681.86;213521;1287;141165;-83
2023/09/22 19:16:34;;;;;;;4.50;2.20;;;;;;;16.71;100.00;99680.92;214425;1290;139152;-82
2023/09/22 19:21:34;;;;;;;5.60;2.80;;;;;;;16.70;100.00;99680.89;213972;1291;141842;-82
2023/09/22 19:26:37;;;;;;;5.70;2.60;;;;;;;16.71;100.00;99681.17;214479;1288;98406;-83
2023/09/22 19:31:37;;;;;;;7.40;2.90;;;;;;;16.68;100.00;99669.80;213688;1290;140349;-82
2023/09/22 19:36:39;;;;;;;7.10;2.60;;;;;;;16.66;100.00;99663.76;214371;1290;139544;-82
2023/09/22 19:41:39;;;;;;;5.60;2.60;;;;;;;16.65;100.00;99659.41;213896;1290;141506;-83
2023/09/22 19:46:40;;;;;;;4.90;2.50;;;;;;;16.64;100.00;99667.46;214573;1286;139707;-83
2023/09/22 19:51:41;;;;;;;7.00;2.90;;;;;;;16.62;100.00;99658.77;214011;1291;141351;-83
2023/09/22 19:56:41;;;;;;;7.10;3.00;;;;;;;16.62;100.00;99662.98;214646;1292;97858;-83
2023/09/22 20:01:42;;;;;;;5.90;3.20;;;;;;;16.61;100.00;99661.82;213784;1292;140422;-83
2023/09/22 20:06:42;;;;;;;7.60;3.70;;;;;;;16.58;100.00;99658.48;214553;1286;139040;-83
2023/09/22 20:11:43;;;;;;;8.60;4.60;;;;;;;16.56;100.00;99676.07;213879;1286;140920;-84
2023/09/22 20:16:43;;;;;;;9.40;5.10;;;;;;;16.47;100.00;99683.37;214450;1289;138964;-86
2023/09/22 20:21:44;;;;;;;6.90;3.30;;;;;;;16.42;100.00;99680.00;214057;1286;141276;-84
2023/09/22 20:26:44;;;;;;;6.70;3.40;;;;;;;16.41;100.00;99667.80;214602;1292;97915;-85
2023/09/22 20:31:45;;;;;;;4.50;2.50;;;;;;;16.40;100.00;99657.43;213876;1286;143371;-85
2023/09/22 20:36:45;;;;;;;5.20;2.70;;;;;;;16.40;100.00;99660.52;214500;1289;139286;-86
2023/09/22 20:41:46;;;;;;;5.20;2.70;;;;;;;16.36;100.00;99655.20;214008;1290;140946;-86
2023/09/22 20:46:46;;;;;;;5.80;3.10;;;;;;;16.33;100.00;99642.50;214603;1292;139192;-85
2023/09/22 20:51:47;;;;;;;4.30;2.50;;;;;;;16.32;100.00;99632.84;213853;1288;144581;-86
2023/09/22 20:56:47;;;;;;;7.80;2.80;;;;;;;16.30;100.00;99636.87;214629;1292;120812;-85
2023/09/22 21:01:48;;;;;;;5.30;2.60;;;;;;;16.29;100.00;99648.02;213929;1289;140811;-85
2023/09/22 21:06:49;;;;;;;5.40;2.40;;;;;;;16.25;100.00;99650.25;214575;1286;139081;-85
2023/09/22 21:11:50;;;;;;;5.30;2.60;;;;;;;16.24;100.00;99635.10;213947;1289;140509;-83
2023/09/22 21:16:50;;;;;;;5.70;3.00;;;;;;;16.25;100.00;99668.64;215139;1285;138792;-83
2023/09/22 21:21:50;;;;;;;8.50;2.90;;;;;;;16.25;100.00;99682.60;214049;1286;141015;-85
2023/09/22 21:26:51;;;;;;;7.90;3.50;;;;;;;16.24;100.00;99673.50;214651;1286;96662;-85
2023/09/22 21:31:51;;;;;;;9.90;4.10;;;;;;;16.25;100.00;99681.59;213953;1287;141709;-85
2023/09/22 21:36:52;;;;;;;7.10;3.60;;;;;;;16.23;100.00;99685.90;214389;1286;140064;-86
2023/09/22 21:41:53;;;;;;;7.80;4.00;;;;;;;16.21;100.00;99693.64;213743;1287;142309;-86
2023/09/22 21:46:53;;;;;;;8.10;4.40;;;;;;;16.20;100.00;99701.28;214318;1286;139420;-85
2023/09/22 21:51:54;;;;;;;7.30;3.40;;;;;;;16.20;100.00;99700.17;213727;1290;142651;-85
2023/09/22 21:56:54;;;;;;;9.90;4.90;;;;;;;16.20;100.00;99725.63;214509;1288;97927;-85
2023/09/22 22:01:55;;;;;;;9.30;4.80;;;;;;;16.21;100.00;99731.25;213802;1287;143300;-85
2023/09/22 22:06:58;;;;;;;6.90;3.90;;;;;;;16.20;100.00;99727.94;214526;1290;138718;-84
2023/09/22 22:11:59;;;;;;;10.10;5.50;;;;;;;16.22;100.00;99745.11;214444;1290;140595;-83
2023/09/22 22:16:59;;;;;;;9.30;5.70;;;;;;;16.20;100.00;99749.98;215086;1291;139153;-84
2023/09/22 22:22:01;;;;;;;9.10;5.00;;;;;;;16.18;100.00;99749.95;214965;1288;139891;-84
2023/09/22 22:27:03;;;;;;;10.20;5.10;;;;;;;16.17;100.00;99740.92;215351;1286;97936;-84
2023/09/22 22:32:04;;;;;;;12.80;7.70;;;;;;;16.17;100.00;99741.96;218147;1286;140868;-84
2023/09/22 22:37:05;;;;;;;13.10;8.80;;;;;;;16.12;100.00;99757.30;215444;1287;139314;-83
2023/09/22 22:42:06;;;;;;;15.90;9.90;;;;;;;16.10;100.00;99756.64;213860;1289;140334;-82
2023/09/22 22:47:11;;;;;;;16.40;9.90;;;;;;;16.07;100.00;99759.40;214402;1291;139040;-83
2023/09/22 22:52:12;;;;;;;13.60;8.90;;;;;;;16.08;100.00;99755.10;213960;1288;142458;-82
2023/09/22 22:57:13;;;;;;;13.20;7.70;;;;;;;16.08;100.00;99758.81;214468;1290;97931;-83